首页
METAR-TAF:

METAR-TAF

机场 :

維也納國際機場

維也納, 奥地利

纬度: 48-07N, 经度: 016-34E, 海拔: 183米

当前天气观测

该预报发布于31分钟前的03:50 UTC
风速10节,风向东南
温度 9°C
湿度 76%
气压 994 hPa
能见度10公里或以上
少量云层高于3600英尺
多云层高于4500英尺

METAR: LOWW 230350Z 13010KT 9999 FEW036 BKN045 09/05 Q0994 NOSIG

时间: 05:21 (04:21 UTC)

预报

该预报发布于2小时和6分钟前的02:15 UTC
预报有效从23日的 03点(UTC)到 24日的 09点(UTC)
风速15节,风向南转南东
能见度10公里或以上
1500米以下无云,无积雨云
短暂存在
从 23日的 03点(UTC)到 23日的 06点(UTC)
风速20节,风向,有时为30节阵风
从 23日的 0800点(UTC)
风速12节,风向西
能见度10公里或以上
多云层高于5000英尺
短暂存在
从 23日的 08点(UTC)到 23日的 13点(UTC)
风速20节,风向西转西北,有时为30节阵风
小阵雨
成为
从 23日的 17点(UTC)到 23日的 19点(UTC)
风速6节,风向西北
短暂存在
从 23日的 22点(UTC)到 23日的 24点(UTC)
小雨
短暂存在
从 24日的 00点(UTC)到 24日的 06点(UTC)
能見度: 2500
多云层高于1000英尺
小雪, 雨

TAF: LOWW 230215Z 2303/2409 16015KT CAVOK TX10/2304Z TN01/2406Z TEMPO 2303/2306 18020G30KT FM230800 27012KT 9999 BKN050 TEMPO 2308/2313 30020G30KT -SHRA BECMG 2317/2319 32006KT TEMPO 2322/2324 -RA TEMPO 2400/2406 2500 -SNRA BKN010

超过4000个机场的气象观测和天气预报(METAR&TAF报告)。

可查询的气象台以黄色和红色小点在地图上表示。

将鼠标移到小点上方,可查看气象台名称。

然后点击查看天气观测和预报。

如需切换地图:点击带黑十字的绿色按钮放大地图;点击带横线的绿色按钮缩小地图;或者点击绿色箭头查看邻近地区的地图。


METAR-TAF: